Time;durP1;ratioP1;P1;durP2;ratioP2;P2;SDS_P1;SDS_P2;PMS_P1;PMS_P2;Temp;Humidity;BMP_temperature;BMP_pressure;BME280_temperature;BME280_humidity;BME280_pressure;Samples;Min_cycle;Max_cycle;Signal;HPM_P1;HPM_P2
2023/09/05 00:01:30;;;;;;;9.40;4.47;;;;;;;;;;6193092;23;20012;-44
2023/09/05 00:03:58;;;;;;;9.73;4.05;;;;;;;;;;6170203;23;20470;-42
2023/09/05 00:06:27;;;;;;;8.57;4.30;;;;;;;;;;6180568;23;20443;-42
2023/09/05 00:08:56;;;;;;;9.27;4.38;;;;;;;;;;6171459;23;20051;-42
2023/09/05 00:11:25;;;;;;;10.13;4.90;;;;;;;;;;6181515;23;20017;-44
2023/09/05 00:13:54;;;;;;;7.35;4.20;;;;;;;;;;6173087;23;20016;-41
2023/09/05 00:16:22;;;;;;;8.60;4.75;;;;;;;;;;6190634;23;20013;-43
2023/09/05 00:18:50;;;;;;;10.20;5.15;;;;;;;;;;6169887;23;20028;-42
2023/09/05 00:21:19;;;;;;;10.10;4.88;;;;;;;;;;6186783;23;20597;-43
2023/09/05 00:23:51;;;;;;;9.50;5.17;;;;;;;;;;6174770;23;20017;-41
2023/09/05 00:26:19;;;;;;;10.95;4.95;;;;;;;;;;6179836;23;20021;-45
2023/09/05 00:28:50;;;;;;;10.73;4.53;;;;;;;;;;6171187;23;20638;-42
2023/09/05 00:31:19;;;;;;;11.15;5.30;;;;;;;;;;6186761;23;20016;-42
2023/09/05 00:33:47;;;;;;;9.35;5.07;;;;;;;;;;6172006;23;20444;-42
2023/09/05 00:36:17;;;;;;;10.73;4.93;;;;;;;;;;6179432;23;20017;-43
2023/09/05 00:38:47;;;;;;;9.35;4.32;;;;;;;;;;6187049;23;20024;-48
2023/09/05 00:41:15;;;;;;;8.93;4.88;;;;;;;;;;6167834;23;20024;-43
2023/09/05 00:43:44;;;;;;;11.05;4.75;;;;;;;;;;6185447;23;20104;-42
2023/09/05 00:46:12;;;;;;;7.93;4.38;;;;;;;;;;6173780;23;20012;-41
2023/09/05 00:48:42;;;;;;;11.50;4.37;;;;;;;;;;6177874;23;20035;-41
2023/09/05 00:51:10;;;;;;;9.20;4.65;;;;;;;;;;6175586;23;20452;-41
2023/09/05 00:53:38;;;;;;;9.38;5.20;;;;;;;;;;6167891;23;20040;-42
2023/09/05 00:56:06;;;;;;;9.65;4.72;;;;;;;;;;6167182;23;20491;-43
2023/09/05 00:58:34;;;;;;;10.48;5.60;;;;;;;;;;6184816;23;20448;-41
2023/09/05 01:01:02;;;;;;;10.17;4.30;;;;;;;;;;6175845;23;20443;-42
2023/09/05 01:03:31;;;;;;;9.23;5.25;;;;;;;;;;6187443;23;20536;-43
2023/09/05 01:06:04;;;;;;;10.02;5.10;;;;;;;;;;6178270;23;20012;-41
2023/09/05 01:08:41;;;;;;;9.57;5.15;;;;;;;;;;6180937;23;20340;-43
2023/09/05 01:11:10;;;;;;;11.85;5.18;;;;;;;;;;6181897;23;20013;-41
2023/09/05 01:13:38;;;;;;;9.33;5.27;;;;;;;;;;6170206;23;20017;-44
2023/09/05 01:16:06;;;;;;;10.75;5.22;;;;;;;;;;6193432;23;20019;-41
2023/09/05 01:18:34;;;;;;;9.60;4.88;;;;;;;;;;6168797;23;20044;-46
2023/09/05 01:21:13;;;;;;;8.85;4.97;;;;;;;;;;6188232;23;20047;-42
2023/09/05 01:23:45;;;;;;;8.70;4.53;;;;;;;;;;6167562;23;20907;-41
2023/09/05 01:26:15;;;;;;;10.03;5.43;;;;;;;;;;6193625;23;20016;-42
2023/09/05 01:28:44;;;;;;;12.13;5.70;;;;;;;;;;6172054;23;20017;-45
2023/09/05 01:31:11;;;;;;;11.35;5.85;;;;;;;;;;6167185;23;20021;-42
2023/09/05 01:33:40;;;;;;;12.80;5.18;;;;;;;;;;6180223;23;20077;-42
2023/09/05 01:36:08;;;;;;;12.65;6.38;;;;;;;;;;6148762;23;20017;-42
2023/09/05 01:38:36;;;;;;;11.10;5.53;;;;;;;;;;6185085;23;20017;-46
2023/09/05 01:41:04;;;;;;;10.93;5.63;;;;;;;;;;6180857;23;20024;-46
2023/09/05 01:43:33;;;;;;;9.32;5.30;;;;;;;;;;6172044;23;20017;-42
2023/09/05 01:46:01;;;;;;;10.77;5.55;;;;;;;;;;6190941;23;20031;-43
2023/09/05 01:48:31;;;;;;;10.82;6.03;;;;;;;;;;6186919;23;20012;-43
2023/09/05 01:50:59;;;;;;;11.00;5.97;;;;;;;;;;6183728;23;20020;-44
2023/09/05 01:53:26;;;;;;;10.43;5.43;;;;;;;;;;6186683;23;20017;-44
2023/09/05 01:55:54;;;;;;;11.68;5.97;;;;;;;;;;6181979;23;20016;-43
2023/09/05 01:58:23;;;;;;;10.88;5.68;;;;;;;;;;6186791;23;20649;-44
2023/09/05 02:00:52;;;;;;;14.05;6.40;;;;;;;;;;6182395;23;20025;-44
2023/09/05 02:03:20;;;;;;;11.93;5.80;;;;;;;;;;6188907;23;20012;-43
2023/09/05 02:05:48;;;;;;;10.98;6.03;;;;;;;;;;6172582;23;20299;-44
2023/09/05 02:08:16;;;;;;;12.07;6.07;;;;;;;;;;6188529;23;20012;-45
2023/09/05 02:10:45;;;;;;;11.35;5.95;;;;;;;;;;6181340;23;20084;-43
2023/09/05 02:13:13;;;;;;;10.32;5.78;;;;;;;;;;6173993;23;20421;-47
2023/09/05 02:15:43;;;;;;;13.27;6.63;;;;;;;;;;6183875;23;20042;-43
2023/09/05 02:18:12;;;;;;;13.65;6.07;;;;;;;;;;6174664;23;20318;-45
2023/09/05 02:20:41;;;;;;;12.27;6.65;;;;;;;;;;6186384;23;20021;-47
2023/09/05 02:23:08;;;;;;;12.93;6.50;;;;;;;;;;6187926;23;20023;-44
2023/09/05 02:25:36;;;;;;;12.57;6.57;;;;;;;;;;6183972;23;20092;-46
2023/09/05 02:28:05;;;;;;;12.20;6.90;;;;;;;;;;6188789;23;20020;-43
2023/09/05 02:30:33;;;;;;;11.73;6.63;;;;;;;;;;6175276;23;20630;-46
2023/09/05 02:33:08;;;;;;;13.13;6.50;;;;;;;;;;6192459;23;20017;-44
2023/09/05 02:35:37;;;;;;;12.25;6.82;;;;;;;;;;6191562;23;20040;-44
2023/09/05 02:38:05;;;;;;;14.57;7.60;;;;;;;;;;6175216;23;20017;-46
2023/09/05 02:40:33;;;;;;;12.07;6.60;;;;;;;;;;6186569;23;20071;-44
2023/09/05 02:43:01;;;;;;;12.85;6.97;;;;;;;;;;6178983;23;20211;-44
2023/09/05 02:45:31;;;;;;;14.35;6.60;;;;;;;;;;6166683;23;20352;-44
2023/09/05 02:47:58;;;;;;;14.45;7.28;;;;;;;;;;6193366;23;20443;-46
2023/09/05 02:50:26;;;;;;;14.18;7.03;;;;;;;;;;6160848;23;20059;-44
2023/09/05 02:52:55;;;;;;;14.13;7.33;;;;;;;;;;6191091;23;20594;-44
2023/09/05 02:55:23;;;;;;;16.55;8.05;;;;;;;;;;6170298;23;20321;-44
2023/09/05 02:57:51;;;;;;;13.93;7.45;;;;;;;;;;6177394;23;20457;-44
2023/09/05 03:00:19;;;;;;;14.02;6.85;;;;;;;;;;6189015;23;20016;-43
2023/09/05 03:02:49;;;;;;;15.88;7.78;;;;;;;;;;6185092;23;20507;-44
2023/09/05 03:05:18;;;;;;;17.47;8.53;;;;;;;;;;6177651;23;20364;-43
2023/09/05 03:07:46;;;;;;;16.17;8.73;;;;;;;;;;6176632;23;20024;-43
2023/09/05 03:10:15;;;;;;;21.45;8.75;;;;;;;;;;6194426;23;20066;-43
2023/09/05 03:12:43;;;;;;;16.58;9.25;;;;;;;;;;6172857;23;20557;-44
2023/09/05 03:15:11;;;;;;;20.35;9.23;;;;;;;;;;6192042;23;20013;-43
2023/09/05 03:17:38;;;;;;;18.83;9.23;;;;;;;;;;6183910;23;20020;-43
2023/09/05 03:20:07;;;;;;;16.02;8.95;;;;;;;;;;6171053;23;20093;-44
2023/09/05 03:22:35;;;;;;;18.42;9.55;;;;;;;;;;6188049;23;20083;-44
2023/09/05 03:25:03;;;;;;;18.67;10.23;;;;;;;;;;6181920;23;20474;-43
2023/09/05 03:27:33;;;;;;;18.40;10.15;;;;;;;;;;6189074;23;20024;-43
2023/09/05 03:30:01;;;;;;;22.20;10.73;;;;;;;;;;6177212;23;20523;-42
2023/09/05 03:32:29;;;;;;;19.08;9.45;;;;;;;;;;6194089;23;20017;-44
2023/09/05 03:34:57;;;;;;;21.05;10.73;;;;;;;;;;6177744;23;20349;-48
2023/09/05 03:37:25;;;;;;;19.27;10.30;;;;;;;;;;6174567;23;20020;-43
2023/09/05 03:39:53;;;;;;;20.13;11.30;;;;;;;;;;6190170;23;20122;-43
2023/09/05 03:42:22;;;;;;;18.97;10.37;;;;;;;;;;6186741;23;20443;-42
2023/09/05 03:44:52;;;;;;;21.38;11.30;;;;;;;;;;6193283;23;20024;-43
2023/09/05 03:47:20;;;;;;;20.85;10.95;;;;;;;;;;6180580;23;20441;-46
2023/09/05 03:49:48;;;;;;;23.38;12.05;;;;;;;;;;6185168;23;20044;-43
2023/09/05 03:52:16;;;;;;;23.30;11.13;;;;;;;;;;6171429;23;20016;-44
2023/09/05 03:54:44;;;;;;;21.17;11.90;;;;;;;;;;6196450;23;20082;-44
2023/09/05 03:57:12;;;;;;;22.10;11.40;;;;;;;;;;6161583;23;20479;-43
2023/09/05 03:59:40;;;;;;;22.13;11.63;;;;;;;;;;6192666;23;20024;-45
2023/09/05 04:02:09;;;;;;;21.63;11.65;;;;;;;;;;6177999;23;20017;-43
2023/09/05 04:04:37;;;;;;;21.33;12.10;;;;;;;;;;6186806;23;20249;-43
2023/09/05 04:07:06;;;;;;;22.77;11.67;;;;;;;;;;6189307;23;20037;-44
2023/09/05 04:09:34;;;;;;;22.00;11.93;;;;;;;;;;6183591;23;20024;-43
2023/09/05 04:12:02;;;;;;;23.55;12.43;;;;;;;;;;6188697;23;20148;-44
2023/09/05 04:14:30;;;;;;;22.33;11.63;;;;;;;;;;6181281;23;20276;-43
2023/09/05 04:16:58;;;;;;;23.85;13.40;;;;;;;;;;6186550;23;20024;-44
2023/09/05 04:19:27;;;;;;;24.00;11.93;;;;;;;;;;6187642;23;20020;-43
2023/09/05 04:21:55;;;;;;;24.15;13.13;;;;;;;;;;6189653;23;20418;-45
2023/09/05 04:24:23;;;;;;;26.52;13.57;;;;;;;;;;6186522;23;20047;-43
2023/09/05 04:26:53;;;;;;;26.42;12.25;;;;;;;;;;6192619;23;20016;-43
2023/09/05 04:29:21;;;;;;;26.00;14.13;;;;;;;;;;6171657;23;20012;-44
2023/09/05 04:31:53;;;;;;;24.77;13.83;;;;;;;;;;6195672;23;20012;-43
2023/09/05 04:34:20;;;;;;;25.60;13.68;;;;;;;;;;6192430;23;20461;-42
2023/09/05 04:36:50;;;;;;;27.75;13.80;;;;;;;;;;6170173;23;20020;-44
2023/09/05 04:39:17;;;;;;;26.98;14.05;;;;;;;;;;6194368;23;20017;-48
2023/09/05 04:41:48;;;;;;;27.00;14.15;;;;;;;;;;6167898;23;20024;-43
2023/09/05 04:44:16;;;;;;;29.10;15.37;;;;;;;;;;6184774;23;20074;-43
2023/09/05 04:46:45;;;;;;;31.52;15.50;;;;;;;;;;6187192;23;20779;-42
2023/09/05 04:49:13;;;;;;;32.13;15.95;;;;;;;;;;6191622;23;20017;-42
2023/09/05 04:51:42;;;;;;;28.05;15.93;;;;;;;;;;6158844;23;20071;-43
2023/09/05 04:54:11;;;;;;;32.33;16.40;;;;;;;;;;6169838;23;20432;-43
2023/09/05 04:56:39;;;;;;;32.10;16.30;;;;;;;;;;6171733;23;20016;-45
2023/09/05 04:59:07;;;;;;;35.70;16.92;;;;;;;;;;6183401;23;20017;-42
2023/09/05 05:01:35;;;;;;;34.30;18.00;;;;;;;;;;6170735;23;20021;-42
2023/09/05 05:04:03;;;;;;;33.30;17.50;;;;;;;;;;6180902;23;20028;-42
2023/09/05 05:06:31;;;;;;;32.83;17.38;;;;;;;;;;6174028;23;20044;-43
2023/09/05 05:08:59;;;;;;;32.43;17.53;;;;;;;;;;6180222;23;20012;-43
2023/09/05 05:11:28;;;;;;;36.10;17.98;;;;;;;;;;6164045;23;20012;-43
2023/09/05 05:13:56;;;;;;;38.20;18.83;;;;;;;;;;6187569;23;20055;-42
2023/09/05 05:16:23;;;;;;;35.60;18.85;;;;;;;;;;6169812;23;20023;-44
2023/09/05 05:18:56;;;;;;;36.20;18.50;;;;;;;;;;6182657;23;20047;-45
2023/09/05 05:21:25;;;;;;;39.03;19.50;;;;;;;;;;6186655;23;20070;-42
2023/09/05 05:23:53;;;;;;;40.35;20.00;;;;;;;;;;6177093;23;20075;-42
2023/09/05 05:26:20;;;;;;;36.92;19.67;;;;;;;;;;6190433;23;20017;-42
2023/09/05 05:28:50;;;;;;;40.13;20.02;;;;;;;;;;6166161;23;20071;-45
2023/09/05 05:31:18;;;;;;;40.45;19.13;;;;;;;;;;6184157;23;20025;-45
2023/09/05 05:33:47;;;;;;;38.23;19.13;;;;;;;;;;6161347;23;20385;-43
2023/09/05 05:36:15;;;;;;;42.78;20.70;;;;;;;;;;6189597;23;20095;-44
2023/09/05 05:38:43;;;;;;;43.10;20.45;;;;;;;;;;6170091;23;20016;-43
2023/09/05 05:41:11;;;;;;;38.97;19.83;;;;;;;;;;6188802;23;20012;-45
2023/09/05 05:43:39;;;;;;;40.20;19.75;;;;;;;;;;6168896;23;20083;-43
2023/09/05 05:46:09;;;;;;;38.47;20.20;;;;;;;;;;6175826;23;20017;-46
2023/09/05 05:48:38;;;;;;;42.10;21.63;;;;;;;;;;6180541;23;20020;-43
2023/09/05 05:51:06;;;;;;;44.13;21.13;;;;;;;;;;6183712;23;20021;-42
2023/09/05 05:53:33;;;;;;;40.67;21.25;;;;;;;;;;6177532;23;20234;-43
2023/09/05 05:56:02;;;;;;;41.47;20.60;;;;;;;;;;6184134;23;20024;-43
2023/09/05 05:58:30;;;;;;;41.80;21.63;;;;;;;;;;6183819;23;20107;-44
2023/09/05 06:00:59;;;;;;;42.53;21.17;;;;;;;;;;6172951;23;20024;-44
2023/09/05 06:03:29;;;;;;;46.58;22.58;;;;;;;;;;6174884;23;20157;-46
2023/09/05 06:06:04;;;;;;;42.55;21.80;;;;;;;;;;6184792;23;20020;-43
2023/09/05 06:08:32;;;;;;;45.42;22.55;;;;;;;;;;6187651;23;20019;-43
2023/09/05 06:11:00;;;;;;;42.60;21.27;;;;;;;;;;6170744;23;20103;-44
2023/09/05 06:13:28;;;;;;;43.60;22.50;;;;;;;;;;6189151;23;20021;-44
2023/09/05 06:15:56;;;;;;;44.58;22.38;;;;;;;;;;6178189;23;20023;-48
2023/09/05 06:18:24;;;;;;;45.63;21.75;;;;;;;;;;6177455;23;20091;-43
2023/09/05 06:20:54;;;;;;;46.08;23.10;;;;;;;;;;6166060;23;20310;-43
2023/09/05 06:23:22;;;;;;;43.73;22.47;;;;;;;;;;6192469;23;20020;-43
2023/09/05 06:25:50;;;;;;;44.38;22.23;;;;;;;;;;6165988;23;20457;-44
2023/09/05 06:28:17;;;;;;;45.47;21.58;;;;;;;;;;6191979;23;20020;-47
2023/09/05 06:30:45;;;;;;;46.10;22.20;;;;;;;;;;6172534;23;20019;-43
2023/09/05 06:33:13;;;;;;;45.70;22.23;;;;;;;;;;6183829;23;20017;-45
2023/09/05 06:35:42;;;;;;;43.10;22.23;;;;;;;;;;6180043;23;20031;-42
2023/09/05 06:38:11;;;;;;;43.53;22.15;;;;;;;;;;6178475;23;20016;-42
2023/09/05 06:40:39;;;;;;;45.28;22.60;;;;;;;;;;6177026;23;20016;-43
2023/09/05 06:43:09;;;;;;;41.03;22.70;;;;;;;;;;6179221;23;20030;-44
2023/09/05 06:45:37;;;;;;;43.70;22.52;;;;;;;;;;6174314;23;20024;-42
2023/09/05 06:48:05;;;;;;;43.45;23.02;;;;;;;;;;6190708;23;20032;-44
2023/09/05 06:50:33;;;;;;;46.47;22.53;;;;;;;;;;6169178;23;20328;-46
2023/09/05 06:53:00;;;;;;;48.65;22.85;;;;;;;;;;6187452;23;20055;-42
2023/09/05 06:55:34;;;;;;;45.25;22.10;;;;;;;;;;6177206;23;20080;-45
2023/09/05 06:58:04;;;;;;;44.72;22.25;;;;;;;;;;6188819;23;20017;-43
2023/09/05 07:00:33;;;;;;;45.38;22.55;;;;;;;;;;6172714;23;20024;-44
2023/09/05 07:03:01;;;;;;;44.20;22.10;;;;;;;;;;6177818;23;20024;-42
2023/09/05 07:05:29;;;;;;;48.83;22.42;;;;;;;;;;6174348;23;20016;-43
2023/09/05 07:07:57;;;;;;;44.05;22.17;;;;;;;;;;6169310;23;20024;-44
2023/09/05 07:10:25;;;;;;;42.17;22.17;;;;;;;;;;6184598;23;20039;-43
2023/09/05 07:12:54;;;;;;;43.33;23.02;;;;;;;;;;6173626;23;20027;-43
2023/09/05 07:15:22;;;;;;;43.83;21.77;;;;;;;;;;6193635;23;20019;-43
2023/09/05 07:17:51;;;;;;;47.88;22.73;;;;;;;;;;6169219;23;20046;-43
2023/09/05 07:20:19;;;;;;;47.03;22.92;;;;;;;;;;6185562;23;20013;-44
2023/09/05 07:22:47;;;;;;;44.05;22.25;;;;;;;;;;6172240;23;20017;-44
2023/09/05 07:25:15;;;;;;;44.15;22.88;;;;;;;;;;6174306;23;20084;-44
2023/09/05 07:27:42;;;;;;;44.73;23.23;;;;;;;;;;6168021;23;20312;-43
2023/09/05 07:30:12;;;;;;;36.33;18.17;;;;;;;;;;6183632;23;20444;-44
2023/09/05 07:32:39;;;;;;;44.60;22.13;;;;;;;;;;6176245;23;20020;-43
2023/09/05 07:35:07;;;;;;;40.65;22.05;;;;;;;;;;6169530;23;20032;-43
2023/09/05 07:37:36;;;;;;;47.78;21.50;;;;;;;;;;6168894;23;20292;-43
2023/09/05 07:40:05;;;;;;;47.30;22.30;;;;;;;;;;6183436;23;20020;-43
2023/09/05 07:42:34;;;;;;;49.35;22.73;;;;;;;;;;6169324;23;20063;-43
2023/09/05 07:45:04;;;;;;;35.08;16.30;;;;;;;;;;6187934;23;20020;-45
2023/09/05 07:47:36;;;;;;;43.28;22.27;;;;;;;;;;6184631;23;20052;-43
2023/09/05 07:50:05;;;;;;;44.05;20.90;;;;;;;;;;6172230;23;20020;-42
2023/09/05 07:52:33;;;;;;;41.40;22.33;;;;;;;;;;6159618;23;20494;-43
2023/09/05 07:55:00;;;;;;;40.75;18.95;;;;;;;;;;6182568;23;20048;-43
2023/09/05 07:57:28;;;;;;;38.88;21.70;;;;;;;;;;6179053;23;20450;-43
2023/09/05 07:59:56;;;;;;;37.67;18.33;;;;;;;;;;6176634;23;20024;-46
2023/09/05 08:02:24;;;;;;;35.35;18.73;;;;;;;;;;6168171;23;20783;-44
2023/09/05 08:04:53;;;;;;;29.60;14.47;;;;;;;;;;6172972;23;20016;-42
2023/09/05 08:07:21;;;;;;;41.65;22.40;;;;;;;;;;6177873;23;20023;-42
2023/09/05 08:09:48;;;;;;;39.53;22.00;;;;;;;;;;6115764;23;20028;-41
2023/09/05 08:12:17;;;;;;;39.10;21.08;;;;;;;;;;6169784;23;20021;-41
2023/09/05 08:14:45;;;;;;;39.75;20.70;;;;;;;;;;6146657;23;20754;-45
2023/09/05 08:17:13;;;;;;;39.40;20.67;;;;;;;;;;6168113;23;20016;-43
2023/09/05 08:19:44;;;;;;;40.53;22.25;;;;;;;;;;6159316;23;20464;-43
2023/09/05 08:22:14;;;;;;;40.55;21.92;;;;;;;;;;6171182;23;20023;-42
2023/09/05 08:24:42;;;;;;;38.75;21.20;;;;;;;;;;6116004;23;20299;-45
2023/09/05 08:27:13;;;;;;;40.67;20.23;;;;;;;;;;6160647;23;20012;-44
2023/09/05 08:29:48;;;;;;;38.27;21.17;;;;;;;;;;6170305;23;20039;-46
2023/09/05 08:32:16;;;;;;;38.47;22.40;;;;;;;;;;6167125;23;20448;-43
2023/09/05 08:34:44;;;;;;;46.75;22.92;;;;;;;;;;6144243;23;20020;-42
2023/09/05 08:37:12;;;;;;;38.28;20.90;;;;;;;;;;6123641;23;20027;-43
2023/09/05 08:39:48;;;;;;;39.60;21.55;;;;;;;;;;6165031;23;20927;-44
2023/09/05 08:42:16;;;;;;;34.33;18.47;;;;;;;;;;6147341;23;20024;-45
2023/09/05 08:44:47;;;;;;;42.35;21.77;;;;;;;;;;6123835;23;20452;-45
2023/09/05 08:47:23;;;;;;;36.38;21.17;;;;;;;;;;6131703;23;20060;-44
2023/09/05 08:49:53;;;;;;;35.45;20.27;;;;;;;;;;6150433;23;20052;-44
2023/09/05 08:52:22;;;;;;;42.83;22.85;;;;;;;;;;6156203;23;20013;-44
2023/09/05 08:54:54;;;;;;;41.63;21.23;;;;;;;;;;6149100;23;20021;-43
2023/09/05 08:57:25;;;;;;;36.67;19.77;;;;;;;;;;6140752;23;20453;-42
2023/09/05 08:59:53;;;;;;;36.45;19.65;;;;;;;;;;6156037;23;20020;-44
2023/09/05 09:02:21;;;;;;;35.58;21.60;;;;;;;;;;6151552;23;20036;-43
2023/09/05 09:04:50;;;;;;;35.92;21.35;;;;;;;;;;6153681;23;20020;-48
2023/09/05 09:07:17;;;;;;;39.63;22.53;;;;;;;;;;6147334;23;20047;-42
2023/09/05 09:09:46;;;;;;;32.92;19.20;;;;;;;;;;6155301;23;20021;-44
2023/09/05 09:12:26;;;;;;;31.88;18.55;;;;;;;;;;6153478;23;20035;-43
2023/09/05 09:14:54;;;;;;;34.53;18.55;;;;;;;;;;6151064;23;20013;-47
2023/09/05 09:17:23;;;;;;;32.10;18.83;;;;;;;;;;6157312;23;20412;-46
2023/09/05 09:19:52;;;;;;;29.53;16.93;;;;;;;;;;6152697;23;20387;-45
2023/09/05 09:22:23;;;;;;;36.28;19.77;;;;;;;;;;6150820;23;20024;-43
2023/09/05 09:24:52;;;;;;;27.83;16.42;;;;;;;;;;6150203;23;20068;-45
2023/09/05 09:27:23;;;;;;;28.27;16.25;;;;;;;;;;6155797;23;20127;-45
2023/09/05 09:29:55;;;;;;;28.92;17.30;;;;;;;;;;6144186;23;20443;-43
2023/09/05 09:32:24;;;;;;;34.43;17.60;;;;;;;;;;6156835;23;20577;-41
2023/09/05 09:34:51;;;;;;;23.65;12.13;;;;;;;;;;6146147;23;20476;-43
2023/09/05 09:37:25;;;;;;;16.60;10.00;;;;;;;;;;6158447;23;20017;-46
2023/09/05 09:39:57;;;;;;;25.33;14.43;;;;;;;;;;6155125;23;20020;-46
2023/09/05 09:42:27;;;;;;;24.95;13.63;;;;;;;;;;6183839;23;20017;-44
2023/09/05 09:44:59;;;;;;;19.83;10.67;;;;;;;;;;6189290;23;20071;-45
2023/09/05 09:47:30;;;;;;;27.85;15.27;;;;;;;;;;6170347;23;20012;-43
2023/09/05 09:49:59;;;;;;;26.98;15.07;;;;;;;;;;6175349;23;20095;-46
2023/09/05 09:52:29;;;;;;;15.75;7.90;;;;;;;;;;6179494;23;20016;-43
2023/09/05 09:54:58;;;;;;;29.08;14.70;;;;;;;;;;6182445;23;20050;-45
2023/09/05 09:57:30;;;;;;;26.20;14.90;;;;;;;;;;6186524;23;20024;-43
2023/09/05 10:00:11;;;;;;;24.55;14.20;;;;;;;;;;6186891;23;20040;-44
2023/09/05 10:02:43;;;;;;;19.65;11.98;;;;;;;;;;6163592;23;20038;-44
2023/09/05 10:05:12;;;;;;;23.73;13.25;;;;;;;;;;6183801;23;20017;-44
2023/09/05 10:07:40;;;;;;;23.52;12.45;;;;;;;;;;6184062;23;20016;-44
2023/09/05 10:10:09;;;;;;;21.53;12.80;;;;;;;;;;6171293;23;20043;-45
2023/09/05 10:12:39;;;;;;;23.70;13.70;;;;;;;;;;6189716;23;20036;-46
2023/09/05 10:15:09;;;;;;;22.17;12.77;;;;;;;;;;6174964;23;20031;-43
2023/09/05 10:17:38;;;;;;;15.45;7.93;;;;;;;;;;6186991;23;20013;-44
2023/09/05 10:20:07;;;;;;;20.85;11.05;;;;;;;;;;6183210;23;20039;-44
2023/09/05 10:22:39;;;;;;;24.67;14.30;;;;;;;;;;6186466;23;20017;-45
2023/09/05 10:25:08;;;;;;;20.73;11.30;;;;;;;;;;6158453;23;20021;-43
2023/09/05 10:27:36;;;;;;;18.52;9.30;;;;;;;;;;6172506;23;20040;-43
2023/09/05 10:30:05;;;;;;;25.45;13.23;;;;;;;;;;6159543;23;20027;-43
2023/09/05 10:32:34;;;;;;;24.10;13.68;;;;;;;;;;6168415;23;20472;-43
2023/09/05 10:35:03;;;;;;;20.63;13.40;;;;;;;;;;6166485;23;20023;-45
2023/09/05 10:37:39;;;;;;;21.08;12.05;;;;;;;;;;6160093;23;20021;-46
2023/09/05 10:40:08;;;;;;;21.92;12.35;;;;;;;;;;6156118;23;20016;-45
2023/09/05 10:42:41;;;;;;;23.95;13.43;;;;;;;;;;6161122;23;20012;-45
2023/09/05 10:45:28;;;;;;;23.70;12.43;;;;;;;;;;6163986;23;20023;-43
2023/09/05 10:47:59;;;;;;;26.07;14.30;;;;;;;;;;6174690;23;20016;-43
2023/09/05 10:50:27;;;;;;;23.08;13.30;;;;;;;;;;6180583;23;20059;-43
2023/09/05 10:53:10;;;;;;;21.80;12.35;;;;;;;;;;6190985;23;20515;-44
2023/09/05 10:55:44;;;;;;;20.95;12.40;;;;;;;;;;6184245;23;20555;-46
2023/09/05 10:58:27;;;;;;;23.92;12.55;;;;;;;;;;6185809;23;20012;-43
2023/09/05 11:00:55;;;;;;;24.70;11.80;;;;;;;;;;6176758;23;20091;-44
2023/09/05 11:03:24;;;;;;;24.50;12.65;;;;;;;;;;6189931;23;20021;-46
2023/09/05 11:05:52;;;;;;;22.88;12.25;;;;;;;;;;6176962;23;20020;-43
2023/09/05 11:08:29;;;;;;;20.25;10.82;;;;;;;;;;6188788;23;20031;-45
2023/09/05 11:10:56;;;;;;;22.15;12.48;;;;;;;;;;6192219;23;20017;-45
2023/09/05 11:13:24;;;;;;;20.73;12.27;;;;;;;;;;6175689;23;20020;-44
2023/09/05 11:15:58;;;;;;;18.88;10.73;;;;;;;;;;6186681;23;20024;-44
2023/09/05 11:18:27;;;;;;;20.55;10.52;;;;;;;;;;6177932;23;20047;-43
2023/09/05 11:20:55;;;;;;;19.05;10.02;;;;;;;;;;6149853;23;20016;-44
2023/09/05 11:23:25;;;;;;;17.58;10.20;;;;;;;;;;6166348;23;20024;-43
2023/09/05 11:25:54;;;;;;;20.37;10.97;;;;;;;;;;6160794;23;20016;-44
2023/09/05 11:28:23;;;;;;;22.73;10.60;;;;;;;;;;6171231;23;20027;-43
2023/09/05 11:30:52;;;;;;;17.15;9.43;;;;;;;;;;6164223;23;20021;-43
2023/09/05 11:33:20;;;;;;;15.82;10.70;;;;;;;;;;6169015;23;20012;-42
2023/09/05 11:35:49;;;;;;;14.32;7.55;;;;;;;;;;6173265;23;20012;-43
2023/09/05 11:38:17;;;;;;;14.70;9.60;;;;;;;;;;6180334;23;20071;-43
2023/09/05 11:40:50;;;;;;;15.18;9.25;;;;;;;;;;6182216;23;20455;-43
2023/09/05 11:43:21;;;;;;;15.48;8.77;;;;;;;;;;6186676;23;20016;-43
2023/09/05 11:45:53;;;;;;;17.55;8.40;;;;;;;;;;6169028;23;20365;-43
2023/09/05 11:48:21;;;;;;;16.92;8.88;;;;;;;;;;6165340;23;20024;-42
2023/09/05 11:50:51;;;;;;;12.33;7.53;;;;;;;;;;6164703;23;20460;-44
2023/09/05 11:53:19;;;;;;;15.52;8.25;;;;;;;;;;6163205;23;20067;-43
2023/09/05 11:55:47;;;;;;;15.10;8.25;;;;;;;;;;6167223;23;20012;-43
2023/09/05 11:58:16;;;;;;;11.60;6.70;;;;;;;;;;6170697;23;20147;-48
2023/09/05 12:00:45;;;;;;;12.57;7.57;;;;;;;;;;6162626;23;20031;-44
2023/09/05 12:03:14;;;;;;;12.07;6.37;;;;;;;;;;6172473;23;20020;-43
2023/09/05 12:05:43;;;;;;;12.80;6.72;;;;;;;;;;6160361;23;20247;-46
2023/09/05 12:08:13;;;;;;;11.60;6.45;;;;;;;;;;6173856;23;20477;-44
2023/09/05 12:11:01;;;;;;;13.35;6.53;;;;;;;;;;6170198;23;20075;-45
2023/09/05 12:13:36;;;;;;;11.10;5.22;;;;;;;;;;6161763;23;20967;-43
2023/09/05 12:16:04;;;;;;;9.57;3.73;;;;;;;;;;6171717;23;20095;-43
2023/09/05 12:18:32;;;;;;;13.18;6.10;;;;;;;;;;6162293;23;20762;-42
2023/09/05 12:21:01;;;;;;;10.57;5.50;;;;;;;;;;6169929;23;20021;-44
2023/09/05 12:23:30;;;;;;;7.78;5.03;;;;;;;;;;6158772;23;20024;-43
2023/09/05 12:25:58;;;;;;;10.27;5.15;;;;;;;;;;6168068;23;20020;-47
2023/09/05 12:28:26;;;;;;;7.63;4.33;;;;;;;;;;6167996;23;20096;-44
2023/09/05 12:31:05;;;;;;;12.15;6.22;;;;;;;;;;6164770;23;20078;-43
2023/09/05 12:33:33;;;;;;;9.40;4.95;;;;;;;;;;6171672;23;20016;-42
2023/09/05 12:36:01;;;;;;;7.50;3.95;;;;;;;;;;6159227;23;20020;-43
2023/09/05 12:38:30;;;;;;;8.88;5.90;;;;;;;;;;6163751;23;20032;-43
2023/09/05 12:40:58;;;;;;;8.23;4.80;;;;;;;;;;6165847;23;20044;-43
2023/09/05 12:43:28;;;;;;;6.95;4.13;;;;;;;;;;6168708;23;20024;-43
2023/09/05 12:45:57;;;;;;;7.72;4.85;;;;;;;;;;6168052;23;20255;-43
2023/09/05 12:48:25;;;;;;;7.63;4.65;;;;;;;;;;6171115;23;20499;-42
2023/09/05 12:50:55;;;;;;;7.85;4.43;;;;;;;;;;6162833;23;20021;-45
2023/09/05 12:53:23;;;;;;;11.37;5.40;;;;;;;;;;6158668;23;20013;-44
2023/09/05 12:55:52;;;;;;;6.72;4.10;;;;;;;;;;6173381;23;20502;-44
2023/09/05 12:58:19;;;;;;;7.25;4.20;;;;;;;;;;6166892;23;20013;-44
2023/09/05 13:00:47;;;;;;;8.77;5.15;;;;;;;;;;6159289;23;20020;-43
2023/09/05 13:03:15;;;;;;;8.15;4.85;;;;;;;;;;6169280;23;20027;-43
2023/09/05 13:05:43;;;;;;;7.23;4.63;;;;;;;;;;6161509;23;20192;-43
2023/09/05 13:08:11;;;;;;;9.52;5.20;;;;;;;;;;6156412;23;20365;-42
2023/09/05 13:10:39;;;;;;;7.35;2.90;;;;;;;;;;6162924;23;20457;-43
2023/09/05 13:13:08;;;;;;;10.68;5.13;;;;;;;;;;6164957;23;20027;-44
2023/09/05 13:15:37;;;;;;;8.60;4.43;;;;;;;;;;6161433;23;20712;-42
2023/09/05 13:18:06;;;;;;;7.70;4.13;;;;;;;;;;6171247;23;20486;-42
2023/09/05 13:20:33;;;;;;;8.90;5.68;;;;;;;;;;6159993;23;20020;-43
2023/09/05 13:23:01;;;;;;;13.70;5.45;;;;;;;;;;6170468;23;20024;-44
2023/09/05 13:25:32;;;;;;;4.93;2.10;;;;;;;;;;6155971;23;20716;-43
2023/09/05 13:28:04;;;;;;;10.43;5.38;;;;;;;;;;6165668;23;20028;-45
2023/09/05 13:30:35;;;;;;;9.07;4.50;;;;;;;;;;6164282;23;20024;-42
2023/09/05 13:33:03;;;;;;;7.35;3.45;;;;;;;;;;6164189;23;20393;-43
2023/09/05 13:35:31;;;;;;;8.15;4.63;;;;;;;;;;6169822;23;20071;-44
2023/09/05 13:37:59;;;;;;;6.45;3.25;;;;;;;;;;6158519;23;20502;-45
2023/09/05 13:40:28;;;;;;;4.53;2.03;;;;;;;;;;6170982;23;20020;-43
2023/09/05 13:42:56;;;;;;;5.90;2.93;;;;;;;;;;6158654;23;20135;-42
2023/09/05 13:45:25;;;;;;;7.70;4.40;;;;;;;;;;6171482;23;20025;-43
2023/09/05 13:47:54;;;;;;;8.88;4.80;;;;;;;;;;6163876;23;20043;-44
2023/09/05 13:50:22;;;;;;;9.93;4.03;;;;;;;;;;6164737;23;20020;-44
2023/09/05 13:53:08;;;;;;;8.85;4.47;;;;;;;;;;6164974;23;20092;-43
2023/09/05 13:55:36;;;;;;;6.03;2.40;;;;;;;;;;6162834;23;20034;-45
2023/09/05 13:58:04;;;;;;;8.23;4.07;;;;;;;;;;6167538;23;20040;-44
2023/09/05 14:00:33;;;;;;;7.47;4.22;;;;;;;;;;6157638;23;20021;-43
2023/09/05 14:03:02;;;;;;;11.73;4.50;;;;;;;;;;6171098;23;20023;-43
2023/09/05 14:05:30;;;;;;;7.20;4.60;;;;;;;;;;6163863;23;20403;-45
2023/09/05 14:07:58;;;;;;;6.23;3.13;;;;;;;;;;6163983;23;20639;-44
2023/09/05 14:10:26;;;;;;;8.27;4.28;;;;;;;;;;6160642;23;20025;-44
2023/09/05 14:12:53;;;;;;;6.65;3.85;;;;;;;;;;6168063;23;20529;-43
2023/09/05 14:15:22;;;;;;;6.82;3.88;;;;;;;;;;6167835;23;20099;-44
2023/09/05 14:17:50;;;;;;;8.25;3.45;;;;;;;;;;6159423;23;20429;-44
2023/09/05 14:20:21;;;;;;;11.47;3.47;;;;;;;;;;6165354;23;20059;-43
2023/09/05 14:22:48;;;;;;;8.02;4.30;;;;;;;;;;6160063;23;20036;-45
2023/09/05 14:25:17;;;;;;;6.85;3.13;;;;;;;;;;6173288;23;20016;-44
2023/09/05 14:27:45;;;;;;;5.38;3.38;;;;;;;;;;6166920;23;20055;-46
2023/09/05 14:30:13;;;;;;;5.50;2.83;;;;;;;;;;6170392;23;20036;-45
2023/09/05 14:32:42;;;;;;;6.13;2.83;;;;;;;;;;6164489;23;20017;-47
2023/09/05 14:35:10;;;;;;;6.25;3.33;;;;;;;;;;6173936;23;20440;-45
2023/09/05 14:37:39;;;;;;;5.55;2.97;;;;;;;;;;6166376;23;20020;-43